Time;durP1;ratioP1;P1;durP2;ratioP2;P2;SDS_P1;SDS_P2;PMS_P1;PMS_P2;Temp;Humidity;BMP_temperature;BMP_pressure;BME280_temperature;BME280_humidity;BME280_pressure;Samples;Min_cycle;Max_cycle;Signal;HPM_P1;HPM_P2
2024/01/06 00:01:44;;;;;;;7.25;4.53;;;;;;;7.36;87.52;100931.06;10422835;28;97472;-77
2024/01/06 00:06:48;;;;;;;11.25;4.65;;;;;;;7.28;87.70;100932.94;10421550;28;96818;-77
2024/01/06 00:11:52;;;;;;;6.22;3.95;;;;;;;7.16;87.87;100930.50;10422031;28;96643;-77
2024/01/06 00:16:57;;;;;;;9.20;4.35;;;;;;;7.15;87.96;100924.41;10422239;28;96632;-77
2024/01/06 00:22:01;;;;;;;6.65;4.47;;;;;;;7.31;87.25;100922.41;10421853;28;96715;-77
2024/01/06 00:27:05;;;;;;;9.23;3.88;;;;;;;7.27;87.58;100937.31;10421446;27;96925;-77
2024/01/06 00:32:10;;;;;;;7.10;3.97;;;;;;;7.20;88.37;100932.19;10422598;28;97101;-77
2024/01/06 00:37:14;;;;;;;7.75;4.03;;;;;;;7.25;87.92;100938.22;10421112;28;96928;-78
2024/01/06 00:42:17;;;;;;;9.85;3.90;;;;;;;7.17;87.91;100927.88;10421274;28;96646;-78
2024/01/06 00:47:24;;;;;;;7.15;3.85;;;;;;;7.16;88.12;100925.28;10420041;28;96677;-77
2024/01/06 00:52:27;;;;;;;9.85;4.35;;;;;;;7.24;88.06;100937.34;10420949;28;96789;-77
2024/01/06 00:57:31;;;;;;;10.32;4.53;;;;;;;7.27;88.06;100942.53;10421464;28;96913;-77
2024/01/06 01:02:36;;;;;;;10.10;4.65;;;;;;;7.34;87.52;100938.06;10421072;28;97265;-77
2024/01/06 01:07:42;;;;;;;5.55;3.50;;;;;;;7.31;87.99;100939.00;10419946;28;98501;-78
2024/01/06 01:12:45;;;;;;;10.18;4.10;;;;;;;7.37;87.75;100944.13;10420519;28;96954;-78
2024/01/06 01:17:51;;;;;;;7.20;3.80;;;;;;;7.38;87.61;100947.59;10420173;28;96760;-77
2024/01/06 01:22:55;;;;;;;8.05;4.10;;;;;;;7.44;87.91;100952.75;10421131;28;97816;-78
2024/01/06 01:27:58;;;;;;;9.40;4.38;;;;;;;7.44;87.61;100953.59;10419987;27;97202;-77
2024/01/06 01:33:03;;;;;;;8.07;3.95;;;;;;;7.44;87.46;100958.00;10420111;28;97385;-78
2024/01/06 01:38:08;;;;;;;7.82;4.40;;;;;;;7.38;87.48;100966.81;10417155;27;97242;-77
2024/01/06 01:43:18;;;;;;;9.40;4.47;;;;;;;7.33;87.59;100959.91;10420030;28;96944;-77
2024/01/06 01:48:24;;;;;;;8.85;2.85;;;;;;;7.32;87.37;100969.50;10419226;28;97434;-77
2024/01/06 01:53:28;;;;;;;4.47;3.08;;;;;;;7.12;87.60;100962.84;10419316;28;97105;-77
2024/01/06 01:58:32;;;;;;;7.72;3.20;;;;;;;7.27;87.26;100963.47;10418927;28;97075;-77
2024/01/06 02:03:38;;;;;;;7.03;3.42;;;;;;;7.17;87.39;100955.78;10418782;28;97502;-77
2024/01/06 02:08:41;;;;;;;;;;;;;;;7.16;87.34;100954.94;10418756;28;97424;-78
2024/01/06 02:13:44;;;;;;;6.78;3.42;;;;;;;7.13;87.33;100973.28;10419416;28;96884;-78
2024/01/06 02:18:49;;;;;;;3.88;3.05;;;;;;;7.09;87.20;100968.13;10417684;28;96505;-77
2024/01/06 02:23:54;;;;;;;5.80;3.10;;;;;;;7.08;87.43;100977.72;10418229;28;96701;-78
2024/01/06 02:28:57;;;;;;;9.20;3.60;;;;;;;7.02;87.44;100979.56;10416868;28;96617;-77
2024/01/06 02:34:01;;;;;;;7.80;3.25;;;;;;;6.94;87.89;100981.44;10418623;28;97622;-77
2024/01/06 02:39:06;;;;;;;11.27;3.20;;;;;;;6.76;87.81;100985.97;10416848;28;97826;-78
2024/01/06 02:44:10;;;;;;;5.43;2.97;;;;;;;6.84;87.65;100983.28;10417779;28;96621;-78
2024/01/06 02:49:16;;;;;;;12.00;3.70;;;;;;;6.93;87.96;100992.75;10416727;28;97313;-78
2024/01/06 02:54:22;;;;;;;6.57;3.60;;;;;;;6.94;87.83;101005.81;10417359;28;97237;-78
2024/01/06 02:59:25;;;;;;;9.65;3.70;;;;;;;6.99;87.93;101013.63;10417358;28;97360;-78
2024/01/06 03:04:29;;;;;;;9.45;3.67;;;;;;;6.98;87.81;101006.63;10418492;28;96980;-78
2024/01/06 03:09:34;;;;;;;7.82;3.33;;;;;;;6.94;87.66;101007.59;10416851;28;96796;-77
2024/01/06 03:14:38;;;;;;;6.10;3.47;;;;;;;6.90;87.61;101008.50;10417354;28;96465;-77
2024/01/06 03:19:41;;;;;;;6.93;2.92;;;;;;;6.81;87.90;101010.31;10415618;28;96930;-78
2024/01/06 03:24:46;;;;;;;8.02;3.38;;;;;;;6.91;87.85;101008.47;10417034;28;96735;-78
2024/01/06 03:29:50;;;;;;;5.65;2.42;;;;;;;6.82;87.71;101006.84;10416417;28;96725;-78
2024/01/06 03:34:54;;;;;;;11.45;3.10;;;;;;;6.69;87.90;100993.91;10416593;28;97152;-78
2024/01/06 03:39:59;;;;;;;5.32;2.92;;;;;;;6.82;88.31;101006.84;10415594;28;97049;-78
2024/01/06 03:45:02;;;;;;;5.30;3.17;;;;;;;6.82;88.11;101008.56;10416338;28;97292;-78
2024/01/06 03:50:06;;;;;;;4.28;2.80;;;;;;;6.88;87.72;101010.25;10416252;28;96993;-78
2024/01/06 03:55:12;;;;;;;7.65;3.03;;;;;;;6.79;88.06;101016.44;10417164;28;96952;-78
2024/01/06 04:00:16;;;;;;;7.20;2.67;;;;;;;6.63;87.89;101025.34;10418630;27;97333;-78
2024/01/06 04:05:20;;;;;;;6.40;2.92;;;;;;;6.73;87.88;101027.84;10422586;28;96547;-78
2024/01/06 04:10:25;;;;;;;5.80;2.90;;;;;;;6.70;87.83;101042.69;10422086;28;96958;-78
2024/01/06 04:15:29;;;;;;;4.18;2.38;;;;;;;6.76;88.08;101032.19;10422457;28;96579;-78
2024/01/06 04:20:33;;;;;;;6.72;2.78;;;;;;;6.82;87.87;101035.63;10422169;28;96740;-77
2024/01/06 04:25:38;;;;;;;4.33;2.50;;;;;;;6.84;87.71;101035.59;10421815;28;97051;-78
2024/01/06 04:30:42;;;;;;;3.95;2.30;;;;;;;6.66;87.72;101039.25;10421945;28;97363;-78
2024/01/06 04:35:45;;;;;;;5.70;2.92;;;;;;;6.65;87.77;101040.16;10421296;28;97521;-78
2024/01/06 04:40:50;;;;;;;4.32;2.72;;;;;;;6.75;87.67;101039.16;10421655;28;96828;-78
2024/01/06 04:45:54;;;;;;;5.85;2.80;;;;;;;6.67;87.54;101046.22;10422490;28;96650;-78
2024/01/06 04:50:57;;;;;;;4.97;2.83;;;;;;;6.78;87.50;101048.72;10421064;28;96911;-78
2024/01/06 04:56:03;;;;;;;6.55;2.70;;;;;;;6.75;87.78;101048.75;10421068;28;97004;-78
2024/01/06 05:01:06;;;;;;;10.68;2.85;;;;;;;6.64;87.80;101050.63;10419896;28;96871;-78
2024/01/06 05:06:10;;;;;;;6.50;2.45;;;;;;;6.61;87.52;101046.28;10419847;28;97703;-78
2024/01/06 05:11:15;;;;;;;3.95;2.35;;;;;;;6.66;87.60;101051.47;10420175;27;96825;-80
2024/01/06 05:16:19;;;;;;;;;;;;;;;6.76;87.70;101055.72;10421011;28;96861;-78
2024/01/06 05:21:23;;;;;;;7.30;2.28;;;;;;;6.67;88.09;101056.69;10420648;28;96714;-78
2024/01/06 05:26:28;;;;;;;4.07;2.42;;;;;;;6.78;87.79;101052.19;10419572;28;96696;-78
2024/01/06 05:31:32;;;;;;;;;;;;;;;6.58;87.40;101059.41;10420471;28;96699;-78
2024/01/06 05:36:35;;;;;;;3.30;2.40;;;;;;;6.62;87.40;101065.47;10419998;28;96988;-78
2024/01/06 05:41:41;;;;;;;5.28;2.13;;;;;;;6.66;87.77;101065.41;10419669;28;96635;-78
2024/01/06 05:46:44;;;;;;;3.75;2.17;;;;;;;6.53;87.87;101078.63;10419388;28;97271;-78
2024/01/06 05:51:48;;;;;;;6.07;2.20;;;;;;;6.33;88.03;101084.03;10418266;28;96580;-78
2024/01/06 05:56:53;;;;;;;5.40;2.00;;;;;;;6.22;88.17;101087.63;10418383;28;96644;-78
2024/01/06 06:01:56;;;;;;;4.70;2.28;;;;;;;6.33;87.91;101094.50;10419005;28;97265;-78
2024/01/06 06:07:00;;;;;;;7.28;1.77;;;;;;;6.23;88.31;101095.47;10418722;28;96900;-78
2024/01/06 06:12:07;;;;;;;3.73;1.90;;;;;;;6.22;87.87;101101.59;10418621;28;96781;-80
2024/01/06 06:17:10;;;;;;;3.95;2.10;;;;;;;6.37;88.06;101111.91;10418066;28;96640;-78
2024/01/06 06:22:13;;;;;;;5.03;2.20;;;;;;;6.41;87.72;101112.72;10417976;27;96671;-78
2024/01/06 06:27:18;;;;;;;3.53;1.80;;;;;;;6.48;87.76;101117.03;10418937;28;96646;-78
2024/01/06 06:32:22;;;;;;;4.68;2.20;;;;;;;6.38;87.52;101126.72;10417996;28;97092;-78
2024/01/06 06:37:26;;;;;;;6.90;2.20;;;;;;;6.38;87.73;101134.56;10417392;28;97002;-78
2024/01/06 06:42:31;;;;;;;4.18;2.22;;;;;;;6.30;87.85;101146.81;10417034;28;96883;-77
2024/01/06 06:47:34;;;;;;;5.03;2.60;;;;;;;6.26;87.73;101158.19;10418010;28;97355;-78
2024/01/06 06:52:38;;;;;;;4.30;1.67;;;;;;;6.39;87.92;101161.53;10417420;28;96742;-78
2024/01/06 06:57:43;;;;;;;7.35;2.22;;;;;;;6.35;87.63;101165.09;10417333;28;96677;-78
2024/01/06 07:02:47;;;;;;;;;;;;;;;6.14;88.00;101166.13;10417863;28;96664;-78
2024/01/06 07:07:51;;;;;;;3.78;1.90;;;;;;;6.05;88.56;101171.41;10416963;28;96745;-78
2024/01/06 07:12:56;;;;;;;4.50;2.17;;;;;;;5.99;88.43;101163.59;10416724;28;96800;-78
2024/01/06 07:17:59;;;;;;;;;;;;;;;5.76;88.46;101175.94;10418159;28;96523;-78
2024/01/06 07:23:04;;;;;;;4.72;2.55;;;;;;;5.89;88.74;101185.41;10416626;28;96797;-78
2024/01/06 07:28:09;;;;;;;5.43;2.13;;;;;;;5.79;89.07;101173.31;10416566;28;96787;-78
2024/01/06 07:33:12;;;;;;;8.07;1.98;;;;;;;5.85;88.69;101183.69;10415752;28;96646;-78
2024/01/06 07:38:16;;;;;;;3.15;2.03;;;;;;;5.91;88.67;101199.34;10423116;28;96618;-78
2024/01/06 07:43:21;;;;;;;3.47;2.25;;;;;;;5.86;88.88;101198.50;10423570;28;97185;-78
2024/01/06 07:48:24;;;;;;;2.97;1.98;;;;;;;5.83;89.17;101203.72;10423333;28;97419;-78
2024/01/06 07:53:28;;;;;;;3.72;2.13;;;;;;;5.81;88.62;101210.72;10423017;28;96759;-80
2024/01/06 07:58:33;;;;;;;4.15;2.33;;;;;;;5.96;88.27;101218.47;10422661;28;96623;-78
2024/01/06 08:03:37;;;;;;;3.63;2.05;;;;;;;6.03;88.31;101221.91;10423045;28;96961;-78
2024/01/06 08:08:40;;;;;;;3.72;2.20;;;;;;;6.07;88.36;101236.69;10479743;22;98654;-78
2024/01/06 08:13:45;;;;;;;4.30;2.05;;;;;;;5.99;87.76;101230.63;10506970;27;96619;-78
2024/01/06 08:18:49;;;;;;;3.30;1.88;;;;;;;5.73;88.18;101236.00;10433328;27;97268;-80
2024/01/06 08:23:52;;;;;;;2.50;1.73;;;;;;;5.61;89.41;101241.25;10421106;28;96592;-80
2024/01/06 08:28:57;;;;;;;3.22;1.95;;;;;;;5.67;89.55;101244.72;10437015;27;97128;-80
2024/01/06 08:34:01;;;;;;;7.70;2.15;;;;;;;5.48;89.76;101247.41;10462826;27;97179;-78
2024/01/06 08:39:05;;;;;;;8.30;2.35;;;;;;;5.23;89.62;101259.66;10421526;28;97371;-80
2024/01/06 08:44:09;;;;;;;5.00;2.10;;;;;;;5.08;90.17;101250.97;10421041;27;97581;-80
2024/01/06 08:49:13;;;;;;;6.88;2.00;;;;;;;4.98;90.43;101252.72;10422253;27;96948;-80
2024/01/06 08:54:17;;;;;;;5.25;2.08;;;;;;;5.05;89.65;101262.28;10421333;28;97223;-78
2024/01/06 08:59:22;;;;;;;3.08;2.13;;;;;;;5.17;89.92;101269.25;10421893;28;97403;-80
2024/01/06 09:04:26;;;;;;;5.25;2.40;;;;;;;5.14;89.01;101267.50;10462125;27;96641;-80
2024/01/06 09:09:30;;;;;;;4.22;2.13;;;;;;;5.30;89.25;101286.59;10435974;27;96739;-78
2024/01/06 09:14:35;;;;;;;4.55;1.95;;;;;;;5.11;88.53;101287.50;10419421;28;97292;-78
2024/01/06 09:19:38;;;;;;;4.35;1.88;;;;;;;5.30;88.07;101287.47;10420145;28;96664;-79
2024/01/06 09:24:42;;;;;;;4.32;1.80;;;;;;;5.51;88.25;101287.44;10420987;27;97409;-78
2024/01/06 09:29:47;;;;;;;6.18;2.55;;;;;;;5.45;87.95;101297.88;10442996;27;97190;-78
2024/01/06 09:34:50;;;;;;;2.45;1.85;;;;;;;5.61;88.19;101283.91;10461947;27;96724;-80
2024/01/06 09:39:54;;;;;;;3.78;2.10;;;;;;;5.65;88.43;101290.00;10457930;27;97218;-77
2024/01/06 09:44:59;;;;;;;4.57;2.50;;;;;;;5.66;88.19;101307.38;10419986;28;97310;-80
2024/01/06 09:50:05;;;;;;;3.67;2.33;;;;;;;5.84;87.77;101307.34;10420677;28;96802;-79
2024/01/06 09:55:12;;;;;;;4.10;2.13;;;;;;;5.92;87.28;101320.38;10419457;28;97376;-79
2024/01/06 10:00:18;;;;;;;3.78;2.22;;;;;;;6.12;86.96;101329.88;10424710;27;96568;-80
2024/01/06 10:05:22;;;;;;;4.68;2.70;;;;;;;6.00;87.38;101335.13;10502000;27;96726;-79
2024/01/06 10:10:26;;;;;;;4.45;2.35;;;;;;;6.13;87.53;101341.16;10494456;27;96732;-79
2024/01/06 10:15:31;;;;;;;4.25;2.45;;;;;;;6.06;87.64;101339.44;10419676;27;97436;-80
2024/01/06 10:20:35;;;;;;;4.68;2.20;;;;;;;6.09;87.90;101345.53;10418593;28;96610;-80
2024/01/06 10:25:39;;;;;;;6.25;2.25;;;;;;;6.04;87.45;101356.91;10418088;28;96712;-79
2024/01/06 10:30:44;;;;;;;5.30;2.25;;;;;;;6.11;88.00;101369.06;10418486;27;96786;-79
2024/01/06 10:35:47;;;;;;;5.93;3.60;;;;;;;6.44;87.49;101374.13;10417932;28;96744;-79
2024/01/06 10:40:58;;;;;;;11.02;5.93;;;;;;;6.38;87.02;101374.16;10418882;28;96664;-79
2024/01/06 10:46:04;;;;;;;16.30;6.28;;;;;;;6.55;86.33;101369.72;10418196;28;97507;-79
2024/01/06 10:51:08;;;;;;;12.13;5.90;;;;;;;6.52;85.95;101361.91;10418302;27;96601;-79
2024/01/06 10:56:12;;;;;;;9.90;5.28;;;;;;;6.51;86.60;101355.78;10416376;28;96607;-79
2024/01/06 11:01:21;;;;;;;6.90;3.63;;;;;;;6.46;86.56;101352.34;10477871;27;97026;-79
2024/01/06 11:06:29;;;;;;;8.43;4.47;;;;;;;6.64;86.31;101341.75;10466183;27;96766;-79
2024/01/06 11:11:36;;;;;;;8.93;5.50;;;;;;;6.92;86.19;101331.16;10446794;27;97759;-79
2024/01/06 11:16:43;;;;;;;8.98;4.80;;;;;;;7.12;85.55;101326.59;10466406;27;97516;-78
2024/01/06 11:21:46;;;;;;;18.02;8.27;;;;;;;7.07;86.07;101323.16;10464347;27;97030;-79
2024/01/06 11:26:54;;;;;;;19.30;8.70;;;;;;;7.47;85.04;101312.31;10424007;28;97309;-79
2024/01/06 11:32:21;;;;;;;14.05;7.97;;;;;;;7.51;85.49;101303.53;10424736;28;97142;-78
2024/01/06 11:37:26;;;;;;;17.55;8.40;;;;;;;7.81;84.59;101299.69;10423105;27;97280;-79
2024/01/06 11:42:33;;;;;;;;;;;;;;;8.53;83.42;101293.47;10424577;27;98152;-79
2024/01/06 11:47:38;;;;;;;23.48;10.25;;;;;;;8.12;83.54;101289.72;10422689;28;97523;-79
2024/01/06 11:52:42;;;;;;;18.77;9.00;;;;;;;8.10;83.61;101275.78;10422603;28;96679;-79
2024/01/06 11:57:46;;;;;;;20.60;9.63;;;;;;;8.62;83.00;101272.34;10423951;27;96711;-79
2024/01/06 12:02:56;;;;;;;18.63;8.52;;;;;;;8.57;81.96;101271.56;10423127;28;97302;-79
2024/01/06 12:08:00;;;;;;;12.48;6.60;;;;;;;8.61;81.35;101272.38;10430794;27;96799;-79
2024/01/06 12:13:05;;;;;;;12.57;5.72;;;;;;;8.68;81.99;101261.78;10459408;27;96785;-79
2024/01/06 12:18:10;;;;;;;9.90;5.03;;;;;;;8.50;83.10;101255.94;10422345;28;96937;-78
2024/01/06 12:23:15;;;;;;;10.20;4.85;;;;;;;8.43;83.31;101252.53;10422260;27;96769;-78
2024/01/06 12:28:19;;;;;;;10.10;4.88;;;;;;;8.22;82.81;101250.22;10433287;27;97308;-79
2024/01/06 12:33:24;;;;;;;9.88;4.72;;;;;;;8.19;83.37;101236.28;10463044;27;96698;-79
2024/01/06 12:38:28;;;;;;;;;;;;;;;8.23;84.09;101233.63;10462866;27;96608;-79
2024/01/06 12:43:31;;;;;;;13.50;6.55;;;;;;;8.26;83.78;101222.22;10464048;27;96860;-79
2024/01/06 12:48:38;;;;;;;16.38;7.13;;;;;;;8.35;83.20;101222.06;10463966;27;97156;-79
2024/01/06 12:53:42;;;;;;;;;;;;;;;8.22;84.18;101224.00;10467276;27;96726;-79
2024/01/06 12:58:45;;;;;;;15.80;6.97;;;;;;;8.04;84.21;101221.66;10466346;27;96677;-78
2024/01/06 13:03:51;;;;;;;12.38;6.55;;;;;;;7.95;85.30;101203.44;10463810;27;96836;-78
2024/01/06 13:08:55;;;;;;;15.70;6.88;;;;;;;8.31;84.90;101196.78;10423718;28;96730;-78
2024/01/06 13:13:58;;;;;;;16.55;8.02;;;;;;;8.31;84.73;101188.91;10455074;27;96699;-79
2024/01/06 13:19:04;;;;;;;16.45;7.43;;;;;;;8.39;84.07;101192.31;10465629;27;96740;-78
2024/01/06 13:24:09;;;;;;;18.38;7.88;;;;;;;8.41;84.57;101174.78;10435124;27;96633;-79
2024/01/06 13:29:12;;;;;;;14.23;6.93;;;;;;;8.56;84.08;101183.28;10440910;27;97283;-79
2024/01/06 13:34:18;;;;;;;15.05;7.38;;;;;;;8.59;84.01;101174.47;10465751;27;97272;-79
2024/01/06 13:39:21;;;;;;;;;;;;;;;8.29;84.67;101181.06;10449396;27;96730;-79
2024/01/06 13:44:25;;;;;;;20.02;8.20;;;;;;;8.56;85.12;101162.28;10423338;28;96753;-78
2024/01/06 13:49:30;;;;;;;14.85;7.70;;;;;;;8.77;84.95;101147.94;10422996;28;97293;-78
2024/01/06 13:54:33;;;;;;;17.85;9.38;;;;;;;8.97;83.97;101141.41;10449311;27;96667;-78
2024/01/06 13:59:42;;;;;;;24.30;9.82;;;;;;;9.30;83.45;101134.66;10422679;28;96608;-78
2024/01/06 14:04:47;;;;;;;19.70;9.40;;;;;;;9.46;83.70;101138.72;10451825;27;96578;-79
2024/01/06 14:09:52;;;;;;;20.45;9.10;;;;;;;9.74;83.44;101133.72;10456600;27;98650;-79
2024/01/06 14:14:56;;;;;;;20.60;9.43;;;;;;;9.67;83.30;101135.63;10455997;27;96762;-82
2024/01/06 14:20:01;;;;;;;19.85;10.70;;;;;;;9.81;82.91;101140.56;10452481;27;98450;-80
2024/01/06 14:25:06;;;;;;;19.50;10.13;;;;;;;10.06;82.65;101123.31;10460943;27;96894;-81
2024/01/06 14:30:10;;;;;;;18.97;9.53;;;;;;;10.15;82.62;101123.09;10458995;27;96874;-83
2024/01/06 14:35:16;;;;;;;18.17;8.47;;;;;;;10.30;82.13;101132.41;10458148;27;96868;-82
2024/01/06 14:40:19;;;;;;;17.00;8.95;;;;;;;10.32;81.64;101131.44;10461544;27;98149;-83
2024/01/06 14:45:23;;;;;;;17.52;8.75;;;;;;;10.41;82.01;101132.97;10461307;27;96813;-89
2024/01/06 14:50:29;;;;;;;20.00;9.60;;;;;;;10.35;81.49;101125.25;10459649;27;97844;-86
2024/01/06 14:55:32;;;;;;;19.85;9.45;;;;;;;10.94;80.93;101125.41;10461694;27;96771;-78
2024/01/06 15:00:36;;;;;;;18.40;9.68;;;;;;;11.35;80.04;101125.16;10458539;27;96826;-80
2024/01/06 15:05:41;;;;;;;20.47;10.07;;;;;;;11.77;78.94;101130.09;10457548;27;98045;-79
2024/01/06 15:10:45;;;;;;;17.73;9.70;;;;;;;12.15;78.12;101135.03;10458468;27;96713;-79
2024/01/06 15:15:50;;;;;;;19.60;10.43;;;;;;;12.10;78.07;101135.16;10460795;27;98439;-80
2024/01/06 15:20:59;;;;;;;22.20;11.57;;;;;;;11.98;78.23;101138.19;10456443;27;96669;-79
2024/01/06 15:26:03;;;;;;;;;;;;;;;12.00;77.63;101130.22;10460560;27;98367;-79
2024/01/06 15:31:07;;;;;;;19.83;10.70;;;;;;;11.78;78.97;101130.03;10459818;27;96861;-78
2024/01/06 15:36:12;;;;;;;23.67;11.48;;;;;;;11.61;78.70;101128.81;10459721;27;96790;-78
2024/01/06 15:41:16;;;;;;;24.15;12.18;;;;;;;11.38;79.64;101124.22;10453032;27;97054;-78
2024/01/06 15:46:20;;;;;;;22.58;11.88;;;;;;;11.31;79.88;101120.91;10459999;27;97063;-77
2024/01/06 15:51:25;;;;;;;25.57;12.87;;;;;;;11.25;80.29;101120.22;10458845;27;97145;-78
2024/01/06 15:56:28;;;;;;;;;;;;;;;11.10;80.18;101126.78;10458904;27;96953;-78
2024/01/06 16:01:33;;;;;;;25.55;12.40;;;;;;;10.89;80.62;101114.16;10465255;27;96750;-78
2024/01/06 16:06:37;;;;;;;25.75;12.88;;;;;;;10.69;80.73;101112.97;10465258;27;96735;-77
2024/01/06 16:11:41;;;;;;;;;;;;;;;10.45;81.82;101114.47;10463988;27;97752;-78
2024/01/06 16:16:44;;;;;;;23.25;11.90;;;;;;;10.42;81.32;101111.91;10466849;27;97013;-77
2024/01/06 16:21:50;;;;;;;27.90;12.63;;;;;;;10.31;82.61;101113.94;10466043;27;96681;-77
2024/01/06 16:27:05;;;;;;;25.70;12.85;;;;;;;10.12;82.91;101115.31;10465426;27;96774;-77
2024/01/06 16:32:09;;;;;;;23.45;12.32;;;;;;;10.10;83.05;101111.84;10465605;27;96659;-78
2024/01/06 16:37:14;;;;;;;23.55;11.85;;;;;;;10.09;82.88;101107.50;10464263;27;96901;-77
2024/01/06 16:42:17;;;;;;;23.20;12.68;;;;;;;9.89;83.46;101109.72;10466144;27;96820;-80
2024/01/06 16:47:21;;;;;;;24.42;13.23;;;;;;;9.77;83.89;101096.84;10464097;27;97371;-77
2024/01/06 16:52:26;;;;;;;25.15;13.10;;;;;;;9.73;84.45;101100.44;10464330;27;96689;-77
2024/01/06 16:57:31;;;;;;;27.00;13.05;;;;;;;9.55;84.13;101111.38;10461114;27;98462;-78
2024/01/06 17:02:35;;;;;;;23.63;13.23;;;;;;;9.44;85.53;101121.25;10456570;27;96696;-78
2024/01/06 17:07:44;;;;;;;26.33;13.40;;;;;;;9.31;85.10;101122.41;10463893;27;96949;-81
2024/01/06 17:12:47;;;;;;;39.10;20.20;;;;;;;9.25;84.70;101127.78;10463536;27;97209;-80
2024/01/06 17:17:51;;;;;;;33.67;16.63;;;;;;;9.24;85.39;101129.56;10461651;27;98629;-80
2024/01/06 17:22:56;;;;;;;25.23;13.40;;;;;;;9.09;86.11;101125.44;10454086;27;96657;-80
2024/01/06 17:28:00;;;;;;;30.38;14.23;;;;;;;9.05;85.57;101120.28;10462548;27;97157;-77
2024/01/06 17:33:04;;;;;;;23.88;13.30;;;;;;;8.99;86.56;101134.38;10461066;27;96803;-89
2024/01/06 17:38:09;;;;;;;25.83;12.95;;;;;;;8.85;86.96;101131.16;10452957;27;96876;-87
2024/01/06 17:43:12;;;;;;;20.30;11.73;;;;;;;8.84;86.61;101139.91;10463843;27;96764;-90
2024/01/06 17:48:16;;;;;;;20.80;12.13;;;;;;;8.74;86.68;101142.75;10455432;27;96874;-89
2024/01/06 17:53:21;;;;;;;30.33;13.18;;;;;;;8.69;86.75;101145.44;10455875;27;96698;-82
2024/01/06 17:58:24;;;;;;;;;;;;;;;8.65;87.04;101153.41;10459439;27;98422;-83
2024/01/06 18:03:28;;;;;;;23.38;12.88;;;;;;;8.55;87.28;101157.91;10460672;27;98860;-84
2024/01/06 18:08:33;;;;;;;27.73;14.13;;;;;;;8.59;86.70;101163.97;10455395;27;97839;-80
2024/01/06 18:13:36;;;;;;;33.97;18.05;;;;;;;8.56;87.25;101169.28;10460451;27;96795;-85
2024/01/06 18:18:40;;;;;;;32.05;15.98;;;;;;;8.47;87.65;101159.81;10458431;27;96766;-81
2024/01/06 18:23:45;;;;;;;33.03;16.15;;;;;;;8.52;87.23;101170.22;10458783;27;96939;-80
2024/01/06 18:28:49;;;;;;;;;;;;;;;8.43;88.23;101163.38;10459580;27;96761;-86
2024/01/06 18:33:52;;;;;;;28.33;15.60;;;;;;;8.41;87.98;101164.31;10463573;27;96753;-83
2024/01/06 18:38:58;;;;;;;30.95;15.48;;;;;;;8.30;87.97;101176.72;10463112;27;96935;-81
2024/01/06 18:44:02;;;;;;;24.38;12.88;;;;;;;8.28;88.67;101173.25;10456215;27;98309;-80
2024/01/06 18:49:06;;;;;;;23.52;13.23;;;;;;;8.24;87.77;101190.78;10462590;27;97013;-81
2024/01/06 18:54:13;;;;;;;28.33;14.82;;;;;;;8.27;88.26;101184.63;10462530;27;96729;-83
2024/01/06 18:59:29;;;;;;;29.27;14.80;;;;;;;8.25;88.20;101195.16;10463486;27;97058;-83
2024/01/06 19:04:32;;;;;;;25.63;14.05;;;;;;;8.16;88.31;101200.53;10457627;27;96715;-82
2024/01/06 19:09:37;;;;;;;25.20;13.60;;;;;;;8.19;88.10;101191.72;10462884;27;96747;-80
2024/01/06 19:14:41;;;;;;;27.35;14.07;;;;;;;8.17;88.34;101185.66;10454356;27;96842;-82
2024/01/06 19:19:45;;;;;;;27.48;14.57;;;;;;;8.13;88.47;101178.72;10460425;27;96812;-80
2024/01/06 19:24:51;;;;;;;36.58;17.80;;;;;;;8.07;89.14;101186.66;10455790;27;96816;-83
2024/01/06 19:29:54;;;;;;;31.52;16.33;;;;;;;8.05;89.57;101188.47;10458290;27;98785;-81
2024/01/06 19:34:58;;;;;;;28.60;15.80;;;;;;;8.03;90.02;101182.38;10465475;27;96764;-83
2024/01/06 19:40:03;;;;;;;29.08;16.65;;;;;;;8.09;89.66;101191.00;10461610;27;96736;-85
2024/01/06 19:45:07;;;;;;;34.00;16.58;;;;;;;8.02;89.69;101191.13;10462812;27;97563;-86
2024/01/06 19:50:11;;;;;;;30.15;15.70;;;;;;;8.09;89.33;101203.25;10471010;27;96668;-81
2024/01/06 19:55:17;;;;;;;30.73;16.98;;;;;;;8.02;89.66;101205.09;10464030;27;96821;-81
2024/01/06 20:00:20;;;;;;;;;;;;;;;7.97;89.63;101209.53;10465789;27;98200;-80
2024/01/06 20:05:25;;;;;;;32.33;16.25;;;;;;;7.96;88.96;101205.19;10464500;27;96812;-81
2024/01/06 20:10:30;;;;;;;32.60;15.98;;;;;;;7.87;89.14;101206.16;10459748;27;98653;-81
2024/01/06 20:15:33;;;;;;;26.02;14.93;;;;;;;7.77;90.22;101214.19;10463903;27;96799;-82
2024/01/06 20:20:37;;;;;;;29.38;15.40;;;;;;;7.78;89.53;101223.78;10461374;27;98751;-81
2024/01/06 20:25:43;;;;;;;26.70;14.88;;;;;;;7.70;89.51;101228.25;10460402;27;97544;-81
2024/01/06 20:30:47;;;;;;;32.08;14.63;;;;;;;7.70;89.42;101229.09;10458659;27;98351;-82
2024/01/06 20:35:51;;;;;;;27.25;14.35;;;;;;;7.66;89.08;101222.19;10473373;22;96819;-87
2024/01/06 20:40:56;;;;;;;24.38;13.68;;;;;;;7.46;89.28;101212.84;10462472;27;96813;-81
2024/01/06 20:45:59;;;;;;;23.65;13.50;;;;;;;7.42;89.44;101219.84;10461746;27;99151;-81
2024/01/06 20:51:04;;;;;;;19.05;10.85;;;;;;;7.29;91.08;101214.75;10454070;27;98326;-80
2024/01/06 20:56:10;;;;;;;24.90;13.40;;;;;;;7.23;91.33;101212.22;10455314;27;96862;-86
2024/01/06 21:01:14;;;;;;;23.42;11.95;;;;;;;7.22;90.84;101210.47;10451042;27;98471;-87
2024/01/06 21:06:18;;;;;;;23.27;12.38;;;;;;;7.29;90.41;101206.91;10441357;27;96797;-86
2024/01/06 21:11:23;;;;;;;26.60;13.53;;;;;;;7.29;90.07;101207.78;10449532;27;97003;-85
2024/01/06 21:16:27;;;;;;;21.30;11.77;;;;;;;7.25;90.21;101206.06;10455396;27;98026;-85
2024/01/06 21:21:30;;;;;;;22.92;12.88;;;;;;;7.22;89.93;101206.09;10434541;27;98608;-85
2024/01/06 21:26:36;;;;;;;22.80;11.60;;;;;;;7.13;89.61;101215.81;10434562;27;96739;-86
2024/01/06 21:31:39;;;;;;;22.20;12.43;;;;;;;7.20;89.26;101212.25;10450242;27;97571;-86
2024/01/06 21:36:43;;;;;;;29.35;13.55;;;;;;;7.25;89.66;101220.94;10459763;27;97184;-84
2024/01/06 21:41:48;;;;;;;20.17;12.20;;;;;;;7.25;89.30;101213.91;10453091;27;99153;-84
2024/01/06 21:46:52;;;;;;;21.58;12.25;;;;;;;7.25;89.16;101216.53;10454442;27;98684;-83
2024/01/06 21:51:55;;;;;;;21.17;12.38;;;;;;;7.21;89.28;101203.50;10455041;27;97733;-79
2024/01/06 21:57:00;;;;;;;23.65;12.77;;;;;;;7.29;89.43;101213.00;10453080;27;97139;-79
2024/01/06 22:02:04;;;;;;;21.50;12.48;;;;;;;7.16;89.40;101206.19;10457446;27;97041;-80
2024/01/06 22:07:07;;;;;;;25.85;12.65;;;;;;;7.16;89.95;101206.19;10460565;27;97021;-81
2024/01/06 22:12:13;;;;;;;25.83;13.27;;;;;;;7.01;89.83;101221.19;10461246;27;97401;-81
2024/01/06 22:17:16;;;;;;;24.98;12.45;;;;;;;7.02;89.71;101223.78;10461903;27;96763;-81
2024/01/06 22:22:21;;;;;;;29.65;12.95;;;;;;;7.06;89.81;101222.00;10461392;27;96694;-80
2024/01/06 22:27:26;;;;;;;24.77;13.27;;;;;;;7.16;89.87;101227.13;10460363;27;98011;-84
2024/01/06 22:32:29;;;;;;;26.35;13.45;;;;;;;7.13;89.51;101228.91;10457971;27;98864;-82
2024/01/06 22:37:33;;;;;;;28.33;14.80;;;;;;;7.15;89.56;101229.72;10458023;27;97921;-82
2024/01/06 22:42:38;;;;;;;28.60;13.63;;;;;;;7.17;89.37;101238.44;10455790;27;96823;-82
2024/01/06 22:47:41;;;;;;;25.98;12.77;;;;;;;7.15;89.40;101229.72;10458114;27;97328;-82
2024/01/06 22:52:45;;;;;;;25.25;13.32;;;;;;;7.33;89.33;101230.44;10460908;27;96756;-82
2024/01/06 22:57:50;;;;;;;24.27;12.98;;;;;;;7.19;89.45;101226.22;10459112;27;98895;-82
2024/01/06 23:02:53;;;;;;;27.77;13.95;;;;;;;7.36;89.70;101225.16;10457496;27;96799;-82
2024/01/06 23:07:57;;;;;;;26.88;12.38;;;;;;;7.15;90.09;101214.03;10466307;27;99031;-82
2024/01/06 23:13:03;;;;;;;25.63;13.25;;;;;;;7.18;90.17;101209.63;10466259;27;96666;-82
2024/01/06 23:18:07;;;;;;;30.85;13.73;;;;;;;7.20;90.19;101218.34;10464478;27;98285;-82
2024/01/06 23:23:11;;;;;;;30.23;12.38;;;;;;;7.17;90.23;101217.50;10464508;27;98372;-82
2024/01/06 23:28:17;;;;;;;30.95;12.70;;;;;;;7.19;89.84;101228.81;10466806;27;97280;-82